createdAt,value
2018-05-11T00:01:08.868Z,19.50
2018-05-11T00:03:13.302Z,19.50
2018-05-11T00:05:17.020Z,19.50
2018-05-11T00:07:19.963Z,19.50
2018-05-11T00:09:22.922Z,19.50
2018-05-11T00:11:25.832Z,19.50
2018-05-11T00:13:29.578Z,19.40
2018-05-11T00:15:32.488Z,19.50
2018-05-11T00:17:35.402Z,19.40
2018-05-11T00:19:38.477Z,19.40
2018-05-11T00:21:42.904Z,19.30
2018-05-11T00:23:46.635Z,19.20
2018-05-11T00:25:49.559Z,19.20
2018-05-11T00:27:53.271Z,19.10
2018-05-11T00:29:57.741Z,19.10
2018-05-11T00:32:00.670Z,19.10
2018-05-11T00:34:03.618Z,19.00
2018-05-11T00:36:06.662Z,19.00
2018-05-11T00:38:10.357Z,19.00
2018-05-11T00:40:14.164Z,18.90
2018-05-11T00:42:17.845Z,18.90
2018-05-11T00:44:22.293Z,18.90
2018-05-11T00:46:25.231Z,18.90
2018-05-11T00:48:28.167Z,18.90
2018-05-11T00:50:31.883Z,18.80
2018-05-11T00:52:34.803Z,18.80
2018-05-11T00:54:37.755Z,18.80
2018-05-11T00:56:40.794Z,18.70
2018-05-11T00:58:44.527Z,18.70
2018-05-11T01:00:47.476Z,18.60
2018-05-11T01:02:51.265Z,18.60
2018-05-11T01:04:55.122Z,18.60
2018-05-11T01:06:58.035Z,18.50
2018-05-11T01:09:00.958Z,18.50
2018-05-11T01:11:03.910Z,18.50
2018-05-11T01:13:08.447Z,18.40
2018-05-11T01:15:12.147Z,18.40
2018-05-11T01:17:15.948Z,18.30
2018-05-11T01:19:19.635Z,18.30
2018-05-11T01:21:23.346Z,18.30
2018-05-11T01:23:27.040Z,18.30
2018-05-11T01:25:30.773Z,18.30
2018-05-11T01:27:33.739Z,18.30
2018-05-11T01:29:36.670Z,18.30
2018-05-11T01:31:39.625Z,18.30
2018-05-11T01:33:42.682Z,18.20
2018-05-11T01:35:45.623Z,18.20
2018-05-11T01:37:48.592Z,18.20
2018-05-11T01:39:51.682Z,18.20
2018-05-11T01:41:54.715Z,18.10
2018-05-11T01:43:58.393Z,18.10
2018-05-11T01:46:02.830Z,18.10
2018-05-11T01:48:06.538Z,18.10
2018-05-11T01:50:09.479Z,18.00
2018-05-11T01:52:12.431Z,18.10
2018-05-11T01:54:15.354Z,18.00
2018-05-11T01:56:18.278Z,18.00
2018-05-11T01:58:21.343Z,18.00
2018-05-11T02:00:25.019Z,17.90
2018-05-11T02:02:27.961Z,17.90
2018-05-11T02:04:30.918Z,17.90
2018-05-11T02:06:34.641Z,17.80
2018-05-11T02:08:37.571Z,17.80
2018-05-11T02:10:41.262Z,17.80
2018-05-11T02:12:45.725Z,17.70
2018-05-11T02:14:48.648Z,17.70
2018-05-11T02:16:51.598Z,17.70
2018-05-11T02:18:54.515Z,17.70
2018-05-11T02:20:57.538Z,17.70
2018-05-11T02:23:01.276Z,17.60
2018-05-11T02:25:04.198Z,17.60
2018-05-11T02:27:07.224Z,17.60
2018-05-11T02:29:10.158Z,17.60
2018-05-11T02:31:13.077Z,17.60
2018-05-11T02:33:16.034Z,17.50
2018-05-11T02:35:18.951Z,17.50
2018-05-11T02:37:21.903Z,17.50
2018-05-11T02:39:25.585Z,17.40
2018-05-11T02:41:30.035Z,17.40
2018-05-11T02:43:33.763Z,17.40
2018-05-11T02:45:36.684Z,17.30
2018-05-11T02:47:41.231Z,17.30
2018-05-11T02:49:45.032Z,17.30
2018-05-11T02:51:48.833Z,17.30
2018-05-11T02:53:52.636Z,17.30
2018-05-11T02:55:56.390Z,17.30
2018-05-11T02:57:59.421Z,17.20
2018-05-11T03:00:03.161Z,17.20
2018-05-11T03:02:06.082Z,17.20
2018-05-11T03:04:08.998Z,17.20
2018-05-11T03:06:11.946Z,17.20
2018-05-11T03:08:15.630Z,17.10
2018-05-11T03:10:18.817Z,17.10
2018-05-11T03:12:21.731Z,17.10
2018-05-11T03:14:25.440Z,17.00
2018-05-11T03:16:29.122Z,17.00
2018-05-11T03:18:32.116Z,17.00
2018-05-11T03:20:35.029Z,17.00
2018-05-11T03:22:37.951Z,17.00
2018-05-11T03:24:40.898Z,17.00
2018-05-11T03:26:43.811Z,17.00
2018-05-11T03:28:46.738Z,17.00
2018-05-11T03:30:50.454Z,17.00
2018-05-11T03:32:53.374Z,16.90
2018-05-11T03:34:56.355Z,16.90
2018-05-11T03:36:59.286Z,16.90
2018-05-11T03:39:02.219Z,16.90
2018-05-11T03:41:05.184Z,16.90
2018-05-11T03:43:08.120Z,16.90
2018-05-11T03:45:11.839Z,16.80
2018-05-11T03:47:14.779Z,16.80
2018-05-11T03:49:17.860Z,16.80
2018-05-11T03:51:22.406Z,16.80
2018-05-11T03:53:26.120Z,16.70
2018-05-11T03:55:29.075Z,16.70
2018-05-11T03:57:32.756Z,16.70
2018-05-11T03:59:35.715Z,16.70
2018-05-11T04:01:50.650Z,16.70
2018-05-11T04:04:05.323Z,16.70
2018-05-11T04:06:15.061Z,16.70
2018-05-11T04:08:30.779Z,16.60
2018-05-11T04:10:33.737Z,16.60
2018-05-11T04:12:36.667Z,16.50
2018-05-11T04:14:40.354Z,16.50
2018-05-11T04:16:43.324Z,16.50
2018-05-11T04:18:46.261Z,16.40
2018-05-11T04:20:49.299Z,16.40
2018-05-11T04:22:52.162Z,16.40
2018-05-11T04:24:55.091Z,16.50
2018-05-11T04:26:58.802Z,16.50
2018-05-11T04:29:01.753Z,16.50
2018-05-11T04:31:04.730Z,16.50
2018-05-11T04:33:08.423Z,16.50
2018-05-11T04:35:11.448Z,16.50
2018-05-11T04:37:14.435Z,16.50
2018-05-11T04:39:17.361Z,16.40
2018-05-11T04:41:20.291Z,16.50
2018-05-11T04:43:23.334Z,16.50
2018-05-11T04:45:26.352Z,16.50
2018-05-11T04:47:30.048Z,16.50
2018-05-11T04:49:33.767Z,16.50
2018-05-11T04:51:36.686Z,16.50
2018-05-11T04:53:39.663Z,16.50
2018-05-11T04:55:42.700Z,16.50
2018-05-11T04:57:46.382Z,16.60
2018-05-11T04:59:49.365Z,16.50
2018-05-11T05:01:52.372Z,16.60
2018-05-11T05:03:56.106Z,16.70
2018-05-11T05:05:59.156Z,16.60
2018-05-11T05:08:02.237Z,16.70
2018-05-11T05:10:05.945Z,16.70
2018-05-11T05:12:08.891Z,16.70
2018-05-11T05:14:13.355Z,16.80
2018-05-11T05:16:16.286Z,16.80
2018-05-11T05:18:19.247Z,16.80
2018-05-11T05:20:23.821Z,16.90
2018-05-11T05:22:27.506Z,16.90
2018-05-11T05:24:31.241Z,16.90
2018-05-11T05:26:34.178Z,16.90
2018-05-11T05:28:37.821Z,17.00
2018-05-11T05:30:40.734Z,17.00
2018-05-11T05:32:43.770Z,17.10
2018-05-11T05:34:47.487Z,17.10
2018-05-11T05:36:50.408Z,17.10
2018-05-11T05:38:53.358Z,17.20
2018-05-11T05:40:56.291Z,17.20
2018-05-11T05:42:59.222Z,17.30
2018-05-11T05:45:02.603Z,17.30
2018-05-11T05:47:05.544Z,17.40
2018-05-11T05:49:08.472Z,17.40
2018-05-11T05:51:11.539Z,17.50
2018-05-11T05:53:14.479Z,17.50
2018-05-11T05:55:17.406Z,17.60
2018-05-11T05:57:20.372Z,17.60
2018-05-11T05:59:24.066Z,17.70
2018-05-11T06:01:27.802Z,17.70
2018-05-11T06:03:30.742Z,17.70
2018-05-11T06:05:34.449Z,17.70
2018-05-11T06:07:38.176Z,17.80
2018-05-11T06:09:41.126Z,17.80
2018-05-11T06:11:44.855Z,17.90
2018-05-11T06:13:47.823Z,17.90
2018-05-11T06:15:51.633Z,17.90
2018-05-11T06:17:55.351Z,18.00
2018-05-11T06:19:58.279Z,18.00
2018-05-11T06:22:01.271Z,18.00
2018-05-11T06:24:05.103Z,18.10
2018-05-11T06:26:08.904Z,18.10
2018-05-11T06:28:12.587Z,18.10
2018-05-11T06:30:16.299Z,18.20
2018-05-11T06:32:20.019Z,18.20
2018-05-11T06:34:22.955Z,18.20
2018-05-11T06:36:27.415Z,18.30
2018-05-11T06:38:30.362Z,18.20
2018-05-11T06:40:34.994Z,18.30
2018-05-11T06:42:37.896Z,18.30
2018-05-11T06:44:40.861Z,18.30
2018-05-11T06:46:44.575Z,18.40
2018-05-11T06:48:48.372Z,18.40
2018-05-11T06:50:52.113Z,18.40
2018-05-11T06:52:55.056Z,18.40
2018-05-11T06:54:58.857Z,18.40
2018-05-11T06:57:02.574Z,18.50
2018-05-11T06:59:05.497Z,18.40
2018-05-11T07:01:08.458Z,18.40
2018-05-11T07:03:11.505Z,18.40
2018-05-11T07:05:15.215Z,18.30
2018-05-11T07:07:18.175Z,18.30
2018-05-11T07:09:21.962Z,18.30
2018-05-11T07:11:24.917Z,18.30
2018-05-11T07:13:27.852Z,18.40
2018-05-11T07:15:31.539Z,18.50
2018-05-11T07:17:35.356Z,18.40
2018-05-11T07:19:39.039Z,18.50
2018-05-11T07:21:42.000Z,18.50
2018-05-11T07:23:44.936Z,18.50
2018-05-11T07:25:47.888Z,18.50
2018-05-11T07:27:50.822Z,18.60
2018-05-11T07:29:53.783Z,18.70
2018-05-11T07:31:56.850Z,18.70
2018-05-11T07:33:59.786Z,18.70
2018-05-11T07:36:02.718Z,18.80
2018-05-11T07:38:06.429Z,19.00
2018-05-11T07:40:09.351Z,18.90
2018-05-11T07:42:12.308Z,19.00
2018-05-11T07:44:15.231Z,19.10
2018-05-11T07:46:18.179Z,19.20
2018-05-11T07:48:21.142Z,19.20
2018-05-11T07:50:24.074Z,19.20
2018-05-11T07:52:27.091Z,19.30
2018-05-11T07:54:30.033Z,19.30
2018-05-11T07:56:32.990Z,19.40
2018-05-11T07:58:35.946Z,19.30
2018-05-11T08:00:38.878Z,19.30
2018-05-11T08:02:43.439Z,19.30
2018-05-11T08:04:46.554Z,19.30
2018-05-11T08:06:49.611Z,19.30
2018-05-11T08:08:53.326Z,19.30
2018-05-11T08:10:56.270Z,19.30
2018-05-11T08:13:00.741Z,19.30
2018-05-11T08:15:03.674Z,19.30
2018-05-11T08:17:07.497Z,19.40
2018-05-11T08:19:11.194Z,19.40
2018-05-11T08:21:14.885Z,19.50
2018-05-11T08:23:18.707Z,19.60
2018-05-11T08:25:21.643Z,19.50
2018-05-11T08:27:24.602Z,19.60
2018-05-11T08:29:27.648Z,19.60
2018-05-11T08:31:31.366Z,19.80
2018-05-11T08:33:34.309Z,19.80
2018-05-11T08:35:38.007Z,19.90
2018-05-11T08:37:42.480Z,19.90
2018-05-11T08:39:45.413Z,19.90
2018-05-11T08:41:48.415Z,20.00
2018-05-11T08:43:52.106Z,20.10
2018-05-11T08:45:55.803Z,20.20
2018-05-11T08:47:59.524Z,20.20
2018-05-11T08:50:03.421Z,20.20
2018-05-11T08:52:07.134Z,20.30
2018-05-11T08:54:10.092Z,20.20
2018-05-11T08:56:13.799Z,20.30
2018-05-11T08:58:17.562Z,20.40
2018-05-11T09:00:20.515Z,20.40
2018-05-11T09:02:23.474Z,20.50
2018-05-11T09:04:26.431Z,20.60
2018-05-11T09:06:30.140Z,20.60
2018-05-11T09:08:33.889Z,20.60
2018-05-11T09:10:36.823Z,20.60
2018-05-11T09:12:40.738Z,20.70
2018-05-11T09:14:44.434Z,20.70
2018-05-11T09:16:48.160Z,20.80
2018-05-11T09:18:51.140Z,20.80
2018-05-11T09:20:54.083Z,20.80
2018-05-11T09:22:57.905Z,20.80
2018-05-11T09:25:00.893Z,20.80
2018-05-11T09:27:03.838Z,20.90
2018-05-11T09:29:06.855Z,20.90
2018-05-11T09:31:10.586Z,21.10
2018-05-11T09:33:13.522Z,21.00
2018-05-11T09:35:17.547Z,21.10
2018-05-11T09:37:20.558Z,21.10
2018-05-11T09:39:23.536Z,21.10
2018-05-11T09:41:26.476Z,21.20
2018-05-11T09:43:30.211Z,21.30
2018-05-11T09:45:33.179Z,21.40
2018-05-11T09:47:36.114Z,21.40
2018-05-11T09:49:39.088Z,21.50
2018-05-11T09:51:42.068Z,21.50
2018-05-11T09:53:45.111Z,21.50
2018-05-11T09:55:48.079Z,21.50
2018-05-11T09:57:51.771Z,21.60
2018-05-11T09:59:54.754Z,21.60
2018-05-11T10:01:57.737Z,21.60
2018-05-11T10:04:02.195Z,21.60
2018-05-11T10:06:05.142Z,21.70
2018-05-11T10:08:08.852Z,21.70
2018-05-11T10:10:11.827Z,21.70
2018-05-11T10:12:15.519Z,21.70
2018-05-11T10:14:19.236Z,21.70
2018-05-11T10:16:22.963Z,21.70
2018-05-11T10:18:26.344Z,21.70
2018-05-11T10:20:29.400Z,21.80
2018-05-11T10:22:33.099Z,21.80
2018-05-11T10:24:36.798Z,21.90
2018-05-11T10:26:40.615Z,21.90
2018-05-11T10:28:44.383Z,21.90
2018-05-11T10:30:47.300Z,21.90
2018-05-11T10:32:51.038Z,21.90
2018-05-11T10:34:54.734Z,21.90
2018-05-11T10:36:57.712Z,22.00
2018-05-11T10:39:00.767Z,22.00
2018-05-11T10:41:03.733Z,21.90
2018-05-11T10:43:07.468Z,21.90
2018-05-11T10:45:10.401Z,21.90
2018-05-11T10:47:13.342Z,21.90
2018-05-11T10:49:16.304Z,22.00
2018-05-11T10:51:20.510Z,22.00
2018-05-11T10:53:23.538Z,22.00
2018-05-11T10:55:26.474Z,22.10
2018-05-11T10:57:30.203Z,22.10
2018-05-11T10:59:33.130Z,22.10
2018-05-11T11:01:36.051Z,22.10
2018-05-11T11:03:39.123Z,22.10
2018-05-11T11:05:42.849Z,22.20
2018-05-11T11:07:45.864Z,22.20
2018-05-11T11:09:48.892Z,22.20
2018-05-11T11:11:52.602Z,22.20
2018-05-11T11:13:55.574Z,22.20
2018-05-11T11:15:59.275Z,22.20
2018-05-11T11:18:02.245Z,22.20
2018-05-11T11:20:05.985Z,22.30
2018-05-11T11:22:08.918Z,22.30
2018-05-11T11:24:12.667Z,22.30
2018-05-11T11:26:15.603Z,22.30
2018-05-11T11:28:19.388Z,22.30
2018-05-11T11:30:22.330Z,22.30
2018-05-11T11:32:25.398Z,22.30
2018-05-11T11:34:28.406Z,22.40
2018-05-11T11:36:32.083Z,22.40
2018-05-11T11:38:35.060Z,22.40
2018-05-11T11:40:38.859Z,22.40
2018-05-11T11:42:42.663Z,22.40
2018-05-11T11:44:46.463Z,22.50
2018-05-11T11:46:50.171Z,22.50
2018-05-11T11:48:53.166Z,22.50
2018-05-11T11:50:56.101Z,22.60
2018-05-11T11:52:59.039Z,22.60
2018-05-11T11:55:01.993Z,22.70
2018-05-11T11:57:04.958Z,22.70
2018-05-11T11:59:08.386Z,22.70
2018-05-11T12:01:11.328Z,22.70
2018-05-11T12:03:15.060Z,22.80
2018-05-11T12:05:18.853Z,22.80
2018-05-11T12:07:21.803Z,22.80
2018-05-11T12:09:26.266Z,22.80
2018-05-11T12:11:29.196Z,22.80
2018-05-11T12:13:32.161Z,22.90
2018-05-11T12:15:35.101Z,22.90
2018-05-11T12:17:39.626Z,22.80
2018-05-11T12:19:42.571Z,22.80
2018-05-11T12:21:47.120Z,22.80
2018-05-11T12:23:50.835Z,22.90
2018-05-11T12:25:53.758Z,22.90
2018-05-11T12:27:56.754Z,22.90
2018-05-11T12:29:59.678Z,22.90
2018-05-11T12:32:02.604Z,22.90
2018-05-11T12:34:05.735Z,23.00
2018-05-11T12:36:09.421Z,23.00
2018-05-11T12:38:13.237Z,23.00
2018-05-11T12:40:16.924Z,23.00
2018-05-11T12:42:19.855Z,23.00
2018-05-11T12:44:22.903Z,23.10
2018-05-11T12:46:26.582Z,23.10
2018-05-11T12:48:29.587Z,23.10
2018-05-11T12:50:33.306Z,23.20
2018-05-11T12:52:36.244Z,23.10
2018-05-11T12:54:40.787Z,23.20
2018-05-11T12:56:44.472Z,23.20
2018-05-11T12:58:48.296Z,23.20
2018-05-11T13:00:51.239Z,23.20
2018-05-11T13:02:54.182Z,23.20
2018-05-11T13:04:57.105Z,23.20
2018-05-11T13:07:01.557Z,23.30
2018-05-11T13:09:06.146Z,23.30
2018-05-11T13:11:10.591Z,23.30
2018-05-11T13:13:14.307Z,23.30
2018-05-11T13:15:17.306Z,23.30
2018-05-11T13:17:21.096Z,23.30
2018-05-11T13:19:25.308Z,23.30
2018-05-11T13:21:28.245Z,23.30
2018-05-11T13:23:31.174Z,23.30
2018-05-11T13:25:34.236Z,23.30
2018-05-11T13:27:38.058Z,23.30
2018-05-11T13:29:41.945Z,23.30
2018-05-11T13:31:45.659Z,23.30
2018-05-11T13:33:48.586Z,23.30
2018-05-11T13:35:53.034Z,23.30
2018-05-11T13:37:56.756Z,23.30
2018-05-11T13:39:59.677Z,23.30
2018-05-11T13:42:02.697Z,23.30
2018-05-11T13:44:05.693Z,23.40
2018-05-11T13:46:09.387Z,23.40
2018-05-11T13:48:13.140Z,23.40
2018-05-11T13:50:16.163Z,23.40
2018-05-11T13:52:19.160Z,23.40
2018-05-11T13:54:22.850Z,23.40
2018-05-11T13:56:26.724Z,23.40
2018-05-11T13:58:29.611Z,23.40
2018-05-11T14:00:32.566Z,23.40
2018-05-11T14:02:35.484Z,23.40
2018-05-11T14:04:38.584Z,23.50
2018-05-11T14:06:42.499Z,23.50
2018-05-11T14:08:46.231Z,23.60
2018-05-11T14:10:49.178Z,23.50
2018-05-11T14:12:53.291Z,23.70
2018-05-11T14:14:56.986Z,23.80
2018-05-11T14:17:00.675Z,23.80
2018-05-11T14:19:05.163Z,23.90
2018-05-11T14:21:08.083Z,23.90
2018-05-11T14:23:11.807Z,23.90
2018-05-11T14:25:14.739Z,23.90
2018-05-11T14:27:17.665Z,23.90
2018-05-11T14:29:20.655Z,23.90
2018-05-11T14:31:23.604Z,23.90
2018-05-11T14:33:27.423Z,23.90
2018-05-11T14:35:31.122Z,23.90
2018-05-11T14:37:34.806Z,23.90
2018-05-11T14:39:38.539Z,23.80
2018-05-11T14:41:41.468Z,23.80
2018-05-11T14:43:44.438Z,23.80
2018-05-11T14:45:47.393Z,23.80
2018-05-11T14:47:50.479Z,23.80
2018-05-11T14:49:54.282Z,23.80
2018-05-11T14:51:57.258Z,23.80
2018-05-11T14:54:00.207Z,23.80
2018-05-11T14:56:03.127Z,23.80
2018-05-11T14:58:06.103Z,23.80
2018-05-11T15:00:09.265Z,23.80
2018-05-11T15:02:13.080Z,23.80
2018-05-11T15:04:16.815Z,23.80
2018-05-11T15:06:19.743Z,23.80
2018-05-11T15:08:23.464Z,23.80
2018-05-11T15:10:26.402Z,23.80
2018-05-11T15:12:29.334Z,23.80
2018-05-11T15:14:32.288Z,23.80
2018-05-11T15:16:35.984Z,23.80
2018-05-11T15:18:38.936Z,23.80
2018-05-11T15:20:41.876Z,23.80
2018-05-11T15:22:44.805Z,23.80
2018-05-11T15:24:47.762Z,23.80
2018-05-11T15:26:50.719Z,23.80
2018-05-11T15:28:54.431Z,23.90
2018-05-11T15:30:58.220Z,23.80
2018-05-11T15:33:01.219Z,23.90
2018-05-11T15:35:04.186Z,23.90
2018-05-11T15:37:07.862Z,23.90
2018-05-11T15:39:12.290Z,23.90
2018-05-11T15:41:16.027Z,23.90
2018-05-11T15:43:18.946Z,23.90
2018-05-11T15:45:21.894Z,23.90
2018-05-11T15:47:24.816Z,24.00
2018-05-11T15:49:27.772Z,23.90
2018-05-11T15:51:30.746Z,24.00
2018-05-11T15:53:33.675Z,23.90
2018-05-11T15:55:37.402Z,24.00
2018-05-11T15:57:41.091Z,24.00
2018-05-11T15:59:44.893Z,24.00
2018-05-11T16:01:48.698Z,24.00
2018-05-11T16:03:52.396Z,24.00
2018-05-11T16:05:56.154Z,24.10
2018-05-11T16:07:59.074Z,24.00
2018-05-11T16:10:02.779Z,24.00
2018-05-11T16:12:06.462Z,24.00
2018-05-11T16:14:10.163Z,24.00
2018-05-11T16:16:13.138Z,24.00
2018-05-11T16:18:16.122Z,24.00
2018-05-11T16:20:19.083Z,24.00
2018-05-11T16:22:22.110Z,24.00
2018-05-11T16:24:25.791Z,24.00
2018-05-11T16:26:28.743Z,24.00
2018-05-11T16:28:31.656Z,24.00
2018-05-11T16:30:34.616Z,24.00
2018-05-11T16:32:37.567Z,24.00
2018-05-11T16:34:40.643Z,24.00
2018-05-11T16:36:43.559Z,23.90
2018-05-11T16:38:46.502Z,23.90
2018-05-11T16:40:49.468Z,23.90
2018-05-11T16:42:52.381Z,23.80
2018-05-11T16:44:55.304Z,23.80
2018-05-11T16:46:58.283Z,23.80
2018-05-11T16:49:01.208Z,23.80
2018-05-11T16:51:04.193Z,23.80
2018-05-11T16:53:07.126Z,23.80
2018-05-11T16:55:10.073Z,23.80
2018-05-11T16:57:13.128Z,23.80
2018-05-11T16:59:16.981Z,23.80
2018-05-11T17:01:20.015Z,23.80
2018-05-11T17:03:22.999Z,23.80
2018-05-11T17:05:26.802Z,23.80
2018-05-11T17:07:30.556Z,23.80
2018-05-11T17:09:33.498Z,23.80
2018-05-11T17:11:36.471Z,23.80
2018-05-11T17:13:40.291Z,23.70
2018-05-11T17:15:43.219Z,23.70
2018-05-11T17:17:46.178Z,23.70
2018-05-11T17:19:49.102Z,23.70
2018-05-11T17:21:52.923Z,23.80
2018-05-11T17:23:55.880Z,23.70
2018-05-11T17:26:00.345Z,23.70
2018-05-11T17:28:03.266Z,23.70
2018-05-11T17:30:06.336Z,23.70
2018-05-11T17:32:09.267Z,23.80
2018-05-11T17:34:12.943Z,23.70
2018-05-11T17:36:15.900Z,23.70
2018-05-11T17:38:18.823Z,23.70
2018-05-11T17:40:22.513Z,23.80
2018-05-11T17:42:26.233Z,23.80
2018-05-11T17:44:29.910Z,23.90
2018-05-11T17:46:34.367Z,23.90
2018-05-11T17:48:37.313Z,23.90
2018-05-11T17:50:40.227Z,23.90
2018-05-11T17:52:43.178Z,23.90
2018-05-11T17:54:47.609Z,23.90
2018-05-11T17:56:51.316Z,24.00
2018-05-11T17:58:55.007Z,24.00
2018-05-11T18:00:58.698Z,24.00
2018-05-11T18:03:02.440Z,24.00
2018-05-11T18:05:05.367Z,23.90
2018-05-11T18:07:09.828Z,23.90
2018-05-11T18:09:12.778Z,23.90
2018-05-11T18:11:15.807Z,23.90
2018-05-11T18:13:18.729Z,23.90
2018-05-11T18:15:21.666Z,23.90
2018-05-11T18:17:24.615Z,23.90
2018-05-11T18:19:28.302Z,23.80
2018-05-11T18:21:32.046Z,23.80
2018-05-11T18:23:35.025Z,23.80
2018-05-11T18:25:37.988Z,23.80
2018-05-11T18:27:41.729Z,23.70
2018-05-11T18:29:44.772Z,23.70
2018-05-11T18:31:47.791Z,23.70
2018-05-11T18:33:50.779Z,23.60
2018-05-11T18:35:53.696Z,23.60
2018-05-11T18:37:56.662Z,23.50
2018-05-11T18:39:59.687Z,23.50
2018-05-11T18:42:03.622Z,23.40
2018-05-11T18:44:06.542Z,23.40
2018-05-11T18:46:09.559Z,23.40
2018-05-11T18:48:12.667Z,23.30
2018-05-11T18:50:15.734Z,23.30
2018-05-11T18:52:18.736Z,23.30
2018-05-11T18:54:22.225Z,23.20
2018-05-11T18:56:24.986Z,23.20
2018-05-11T18:58:28.897Z,23.10
2018-05-11T19:00:32.752Z,23.00
2018-05-11T19:02:35.718Z,23.00
2018-05-11T19:04:38.743Z,22.90
2018-05-11T19:06:41.876Z,22.80
2018-05-11T19:08:44.935Z,22.80
2018-05-11T19:10:48.003Z,22.80
2018-05-11T19:12:51.825Z,22.70
2018-05-11T19:14:55.217Z,22.70
2018-05-11T19:16:59.336Z,22.70
2018-05-11T19:19:03.022Z,22.70
2018-05-11T19:21:06.832Z,22.60
2018-05-11T19:23:10.624Z,22.60
2018-05-11T19:25:13.718Z,22.50
2018-05-11T19:27:16.796Z,22.50
2018-05-11T19:29:19.769Z,22.50
2018-05-11T19:31:22.801Z,22.40
2018-05-11T19:33:25.800Z,22.40
2018-05-11T19:35:28.890Z,22.40
2018-05-11T19:37:32.087Z,22.30
2018-05-11T19:39:35.035Z,22.30
2018-05-11T19:41:37.987Z,22.20
2018-05-11T19:43:41.786Z,22.20
2018-05-11T19:45:45.897Z,22.10
2018-05-11T19:47:49.977Z,22.10
2018-05-11T19:49:53.090Z,22.10
2018-05-11T19:51:56.127Z,22.10
2018-05-11T19:54:00.598Z,22.00
2018-05-11T19:56:04.390Z,22.00
2018-05-11T19:58:08.308Z,21.90
2018-05-11T20:00:12.020Z,21.90
2018-05-11T20:02:15.130Z,21.90
2018-05-11T20:04:18.412Z,21.90
2018-05-11T20:06:21.705Z,21.80
2018-05-11T20:08:24.749Z,21.80
2018-05-11T20:10:28.656Z,21.70
2018-05-11T20:12:32.459Z,21.70
2018-05-11T20:14:36.290Z,21.70
2018-05-11T20:16:39.364Z,21.70
2018-05-11T20:18:42.639Z,21.70
2018-05-11T20:20:45.752Z,21.60
2018-05-11T20:22:48.769Z,21.60
2018-05-11T20:24:51.842Z,21.60
2018-05-11T20:26:54.887Z,21.50
2018-05-11T20:28:58.072Z,21.50
2018-05-11T20:31:01.856Z,21.50
2018-05-11T20:33:05.674Z,21.40
2018-05-11T20:35:08.802Z,21.40
2018-05-11T20:37:11.910Z,21.40
2018-05-11T20:39:14.956Z,21.40
2018-05-11T20:41:17.983Z,21.40
2018-05-11T20:43:21.126Z,21.40
2018-05-11T20:45:24.138Z,21.40
2018-05-11T20:47:28.186Z,21.30
2018-05-11T20:49:31.294Z,21.30
2018-05-11T20:51:34.315Z,21.30
2018-05-11T20:53:37.543Z,21.30
2018-05-11T20:55:41.344Z,21.20
2018-05-11T20:57:45.364Z,21.20
2018-05-11T20:59:48.230Z,21.20
2018-05-11T21:01:51.932Z,21.20
2018-05-11T21:03:55.666Z,21.20
2018-05-11T21:05:58.598Z,21.20
2018-05-11T21:08:02.323Z,21.20
2018-05-11T21:10:06.082Z,21.20
2018-05-11T21:12:10.574Z,21.20
2018-05-11T21:14:13.491Z,21.20
2018-05-11T21:16:16.426Z,21.20
2018-05-11T21:18:19.485Z,21.20
2018-05-11T21:20:23.191Z,21.20
2018-05-11T21:22:26.142Z,21.10
2018-05-11T21:24:30.605Z,21.10
2018-05-11T21:26:34.270Z,21.10
2018-05-11T21:28:37.994Z,21.10
2018-05-11T21:30:40.941Z,21.10
2018-05-11T21:32:43.977Z,21.10
2018-05-11T21:34:46.894Z,21.10
2018-05-11T21:36:49.819Z,21.10
2018-05-11T21:38:53.554Z,21.10
2018-05-11T21:40:56.582Z,21.10
2018-05-11T21:43:00.239Z,21.10
2018-05-11T21:45:03.302Z,21.10
2018-05-11T21:47:06.232Z,21.10
2018-05-11T21:49:09.178Z,21.10
2018-05-11T21:51:12.090Z,21.10
2018-05-11T21:53:15.040Z,21.00
2018-05-11T21:55:18.002Z,21.00
2018-05-11T21:57:21.001Z,21.00
2018-05-11T21:59:24.649Z,21.00
2018-05-11T22:01:27.575Z,20.90
2018-05-11T22:03:30.543Z,20.90
2018-05-11T22:05:34.236Z,20.90
2018-05-11T22:07:37.963Z,20.90
2018-05-11T22:09:40.880Z,20.90
2018-05-11T22:11:43.903Z,20.90
2018-05-11T22:13:48.347Z,20.80
2018-05-11T22:15:51.274Z,20.90
2018-05-11T22:17:54.302Z,20.90
2018-05-11T22:19:57.226Z,20.90
2018-05-11T22:22:00.163Z,20.90
2018-05-11T22:24:03.218Z,20.90
2018-05-11T22:26:06.919Z,20.80
2018-05-11T22:28:10.643Z,20.80
2018-05-11T22:30:13.615Z,20.80
2018-05-11T22:32:17.316Z,20.80
2018-05-11T22:34:21.038Z,20.80
2018-05-11T22:36:23.982Z,20.70
2018-05-11T22:38:27.672Z,20.70
2018-05-11T22:40:30.643Z,20.70
2018-05-11T22:42:33.665Z,20.70
2018-05-11T22:44:37.467Z,20.70
2018-05-11T22:46:41.269Z,20.70
2018-05-11T22:48:44.955Z,20.70
2018-05-11T22:50:48.695Z,20.60
2018-05-11T22:52:51.630Z,20.60
2018-05-11T22:54:55.334Z,20.60
2018-05-11T22:56:59.071Z,20.50
2018-05-11T22:59:02.012Z,20.50
2018-05-11T23:01:04.928Z,20.50
2018-05-11T23:03:08.722Z,20.50
2018-05-11T23:05:12.423Z,20.50
2018-05-11T23:07:16.098Z,20.50
2018-05-11T23:09:19.043Z,20.50
2018-05-11T23:11:21.981Z,20.50
2018-05-11T23:13:25.695Z,20.50
2018-05-11T23:15:28.635Z,20.50
2018-05-11T23:17:31.647Z,20.50
2018-05-11T23:19:35.387Z,20.50
2018-05-11T23:21:38.312Z,20.50
2018-05-11T23:23:42.765Z,20.50
2018-05-11T23:25:45.686Z,20.50
2018-05-11T23:27:48.719Z,20.50
2018-05-11T23:29:51.695Z,20.50
2018-05-11T23:31:55.385Z,20.50
2018-05-11T23:33:59.197Z,20.40
2018-05-11T23:36:02.885Z,20.40
2018-05-11T23:38:06.699Z,20.40
2018-05-11T23:40:10.393Z,20.40
2018-05-11T23:42:14.105Z,20.40
2018-05-11T23:44:17.822Z,20.40
2018-05-11T23:46:20.747Z,20.40
2018-05-11T23:48:23.711Z,20.40
2018-05-11T23:50:26.747Z,20.40
2018-05-11T23:52:30.434Z,20.30
2018-05-11T23:54:34.251Z,20.30
2018-05-11T23:56:38.052Z,20.30
2018-05-11T23:58:41.062Z,20.30
